CAPE DECISION AK US NWS current weather conditions

sailwx.info

Wind from 060 at 26 knots gusting 38

Air temperature -5.3° C
Dewpoint -7.3° C

Last reported at 2020-Jan-18 15:12 UTC.
Time now 2020-Jan-18 15:45 UTC

Location: N 56°00' W 134°08'.
View on Google Maps.

See reports from other nearby stations

  
Tides and Currents Weather Stations Pressure Air Temp Water Temp Dewpoint Dewpoint Depression Visibility Wind Speed Wind Dir Waves Ship Positions
date/time (UTC)wind fromknots sea level pressurealtimeterstation pressurevisibilityair tempwater tempwave heightnotes
2020-Jan-18 15:12 060 26 gusting 38 -5.3
2020-Jan-18 15:02 050 20 gusting 31 -5.1
2020-Jan-18 14:52 070 19 gusting 28 -5.1
2020-Jan-18 14:42 070 26 gusting 53 -4.6
2020-Jan-18 14:32 090 13 gusting 22 -4.3
2020-Jan-18 14:22 080 15 gusting 21 -4.2
2020-Jan-18 14:12 040 26 gusting 54 -3.9
2020-Jan-18 14:02 030 20 gusting 41 -4.0
2020-Jan-18 13:52 060 28 gusting 42 -3.9
2020-Jan-18 13:42 060 27 gusting 35 -3.9
2020-Jan-18 13:32 050 18 gusting 48 -3.9
2020-Jan-18 13:22 050 21 gusting 44 -3.9
2020-Jan-18 13:12 060 20 gusting 41 -3.9
2020-Jan-18 13:02 050 22 gusting 27 -3.9
2020-Jan-18 12:52 050 21 gusting 38 -4.1
2020-Jan-18 12:42 060 39 gusting 39
2020-Jan-18 12:32 050 22 gusting 44 -4.1
2020-Jan-18 12:22 060 26 gusting 34 -4.2
2020-Jan-18 12:12 070 26 gusting 45 -4.2
2020-Jan-18 12:02 050 21 gusting 21
2020-Jan-18 11:52 070 27 gusting 38 -4.3
2020-Jan-18 11:42 060 34 gusting 39 -4.3
2020-Jan-18 11:32 050 26 gusting 42 -4.3
2020-Jan-18 11:22 050 25 gusting 40 -4.3
2020-Jan-18 11:12 070 27 gusting 41 -4.3
2020-Jan-18 11:02 060 20 gusting 35 -4.2
2020-Jan-18 10:52 050 24 gusting 41 -4.3
2020-Jan-18 10:42 060 20 gusting 34 -4.3
2020-Jan-18 10:32 050 25 gusting 34 -4.4
2020-Jan-18 10:22 060 21 gusting 38 -4.4
2020-Jan-18 10:12 060 22 gusting 34 -4.5
2020-Jan-18 10:02 060 18 gusting 48 -4.5
2020-Jan-18 09:52 050 21 gusting 39 -4.5
2020-Jan-18 09:42 050 20 gusting 36 -4.4
2020-Jan-18 09:32 040 11 gusting 17 -4.2
2020-Jan-18 09:22 050 20 gusting 36 -4.2
2020-Jan-18 09:12 080 26 gusting 34
2020-Jan-18 09:02 040 19 gusting 31 -4.3
2020-Jan-18 08:52 050 21 gusting 31 -4.4
2020-Jan-18 08:42 040 20 gusting 41 -4.3
2020-Jan-18 08:32 050 18 gusting 33 -4.3
2020-Jan-18 08:22 040 20 gusting 32 -4.2
2020-Jan-18 08:12 080 18 gusting 25 -4.2
2020-Jan-18 08:02 050 24 gusting 34 -4.3
2020-Jan-18 07:52 050 20 gusting 34 -4.3
2020-Jan-18 07:42 050 22 gusting 41 -4.4
2020-Jan-18 07:32 050 24 gusting 38 -4.3
2020-Jan-18 07:22 050 22 gusting 34 -4.2
2020-Jan-18 07:12 040 22 gusting 41 -4.1
2020-Jan-18 06:52 060 20 gusting 32 -4.1
2020-Jan-18 06:42 050 15 gusting 20 -4.1
2020-Jan-18 06:32 050 19 gusting 33 -4.2
2020-Jan-18 06:22 040 20 gusting 38 -4.3
2020-Jan-18 06:12 060 22 gusting 34 -4.3
2020-Jan-18 06:02 050 24 gusting 32 -4.3
2020-Jan-18 05:52 070 22 gusting 51 -4.3
2020-Jan-18 05:42 040 18 gusting 32 -4.2
2020-Jan-18 05:32 050 15 gusting 28 -4.2
2020-Jan-18 05:22 040 13 gusting 20 -4.0
2020-Jan-18 05:12 060 20 gusting 33 -4.1
2020-Jan-18 05:02 040 14 gusting 22 -3.7
2020-Jan-18 04:52 040 20 gusting 41 -3.6
2020-Jan-18 04:42 060 20 gusting 27 -3.8
2020-Jan-18 04:32 080 17 gusting 27 -3.7
2020-Jan-18 04:22 070 18 gusting 32 -3.9
2020-Jan-18 04:12 060 20 gusting 42 -3.8
2020-Jan-18 04:02 070 17 gusting 28 -3.9
2020-Jan-18 03:52 090 20 gusting 34 -3.9
2020-Jan-18 03:42 060 22 gusting 34 -3.8
2020-Jan-18 03:32 080 26 gusting 55 -4.0
2020-Jan-18 03:22 060 28 gusting 39 -4.2
2020-Jan-18 03:12 080 27 gusting 35 -4.2
2020-Jan-18 03:02 070 19 gusting 31 -4.2
2020-Jan-18 02:52 060 18 gusting 34 -4.2
2020-Jan-18 02:42 060 14 gusting 21 -4.3
2020-Jan-18 02:32 350 13 gusting 13
2020-Jan-18 02:22 070 20 gusting 35 -4.2
2020-Jan-18 02:12 070 20 gusting 34 -4.3
2020-Jan-18 02:02 070 20 gusting 28 -4.3
2020-Jan-18 01:52 080 20 gusting 31 -4.3
2020-Jan-18 01:42 080 19 gusting 29 -4.2
2020-Jan-18 01:32 070 26 gusting 39 -4.3
2020-Jan-18 01:22 070 21 gusting 29 -4.3
2020-Jan-18 01:12 070 20 gusting 27 -4.4
2020-Jan-18 01:02 070 21 gusting 32 -4.5
2020-Jan-18 00:52 070 19 gusting 33 -4.4
2020-Jan-18 00:42 080 20 gusting 27 -4.5
2020-Jan-18 00:32 050 20 gusting 36 -4.5
2020-Jan-18 00:22 070 18 gusting 26 -4.5
2020-Jan-18 00:12 050 14 gusting 28 -4.4
2020-Jan-17 23:52 060 20 gusting 32 -4.6
2020-Jan-17 23:42 090 13 gusting 13
2020-Jan-17 23:32 070 24 gusting 38 -4.7
2020-Jan-17 23:22 070 21 gusting 33 -4.5
2020-Jan-17 23:12 070 21 gusting 40 -4.6
2020-Jan-17 23:02 080 15 gusting 20 -4.5
2020-Jan-17 22:52 060 22 gusting 29 -4.7
2020-Jan-17 22:42 070 24 gusting 34 -4.6
2020-Jan-17 22:32 070 18 gusting 27 -4.5
2020-Jan-17 22:22 070 19 gusting 28 -4.5
2020-Jan-17 22:12 080 24 gusting 34 -4.7
2020-Jan-17 22:02 070 27 gusting 34 -4.5
2020-Jan-17 21:52 070 20 gusting 27 -4.8
2020-Jan-17 21:42 070 21 gusting 32 -4.7
2020-Jan-17 21:32 090 24 gusting 33
2020-Jan-17 21:22 060 19 gusting 25 -4.9
2020-Jan-17 21:12 080 25 gusting 33 -4.9
2020-Jan-17 21:02 080 20 gusting 34 -4.9
2020-Jan-17 20:52 080 24 gusting 31 -5.1
2020-Jan-17 20:42 070 20 gusting 36 -5.1
2020-Jan-17 20:32 060 17 gusting 25 -5.0
2020-Jan-17 20:22 070 18 gusting 28 -5.0
2020-Jan-17 20:12 080 22 gusting 40 -5.3
2020-Jan-17 20:02 080 20 gusting 27 -5.1
2020-Jan-17 19:52 080 24 gusting 33 -5.5
2020-Jan-17 19:42 080 22 gusting 33 -5.5
2020-Jan-17 19:32 080 24 gusting 34 -5.6
2020-Jan-17 19:22 080 22 gusting 35 -5.7
2020-Jan-17 19:12 080 28 gusting 41 -5.9
2020-Jan-17 19:02 080 26 gusting 33 -6.0
2020-Jan-17 18:52 070 24 gusting 34 -6.0
2020-Jan-17 18:42 080 24 gusting 38 -5.9
2020-Jan-17 18:32 080 24 gusting 34 -5.9
2020-Jan-17 18:22 070 22 gusting 35 -6.1
2020-Jan-17 18:12 080 25 gusting 32 -6.1
2020-Jan-17 18:02 060 20 gusting 27 -6.2
2020-Jan-17 17:52 080 26 gusting 40 -6.2
2020-Jan-17 17:42 080 24 gusting 34 -6.2
2020-Jan-17 17:32 080 24 gusting 38 -6.3
2020-Jan-17 17:12 070 13 gusting 24 -6.3
2020-Jan-17 17:02 080 20 gusting 34 -6.4
2020-Jan-17 16:52 080 20 gusting 34 -6.4
2020-Jan-17 16:42 080 21 gusting 32 -6.5
2020-Jan-17 16:32 060 19 gusting 35 -6.5
2020-Jan-17 16:22 050 18 gusting 35 -6.5
2020-Jan-17 16:12 080 22 gusting 38 -6.6
2020-Jan-17 16:02 080 21 gusting 28 -6.6
2020-Jan-17 15:52 080 25 gusting 34 -6.7
2020-Jan-17 15:42 070 24 gusting 36 -6.7
2020-Jan-17 15:32 050 21 gusting 27 -6.8
2020-Jan-17 15:22 070 20 gusting 36 -6.8
2020-Jan-17 15:02 070 17 gusting 28 -6.7
2020-Jan-17 14:52 060 9 gusting 19 -6.7
2020-Jan-17 14:42 070 15 gusting 28 -6.8
2020-Jan-17 14:32 070 19 gusting 24 -6.7
2020-Jan-17 14:22 060 13 gusting 21 -6.8
2020-Jan-17 14:12 060 13 gusting 20 -6.8
2020-Jan-17 14:02 060 13 gusting 25 -6.8
2020-Jan-17 13:42 060 15 gusting 24 -6.9
2020-Jan-17 13:32 080 22 gusting 41 -6.9
2020-Jan-17 13:22 070 24 gusting 34 -6.9
2020-Jan-17 13:12 070 24 gusting 39 -6.9
2020-Jan-17 13:02 060 17 gusting 26 -6.9
2020-Jan-17 12:52 070 22 gusting 35 -6.8
2020-Jan-17 12:42 080 20 gusting 29 -6.9
2020-Jan-17 12:32 080 27 gusting 38 -7.0
2020-Jan-17 12:22 070 21 gusting 28 -7.0
2020-Jan-17 12:12 080 22 gusting 32 -6.9
2020-Jan-17 12:02 120 17 gusting 17
2020-Jan-17 11:52 080 29 gusting 41 -7.0
2020-Jan-17 11:42 080 27 gusting 40 -7.0
2020-Jan-17 11:32 080 26 gusting 39 -6.9
2020-Jan-17 11:22 080 27 gusting 41 -7.0
2020-Jan-17 11:12 080 25 gusting 34 -7.0
2020-Jan-17 11:02 080 27 gusting 41 -7.1
2020-Jan-17 10:52 080 25 gusting 39 -7.1
2020-Jan-17 10:42 080 20 gusting 34 -7.1
2020-Jan-17 10:32 090 20 gusting 36 -7.2
2020-Jan-17 10:22 080 19 gusting 36 -7.1
2020-Jan-17 10:12 070 14 gusting 38 -7.1
2020-Jan-17 10:02 070 20 gusting 34 -7.1
2020-Jan-17 09:52 070 21 gusting 29 -7.1
2020-Jan-17 09:42 070 20 gusting 36 -7.1
2020-Jan-17 09:22 080 21 gusting 33 -6.9
2020-Jan-17 09:12 080 28 gusting 36 -7.0
2020-Jan-17 09:02 090 35 gusting 41 -7.0
2020-Jan-17 08:52 080 28 gusting 34 -7.0
2020-Jan-17 08:42 080 25 gusting 36 -6.9
2020-Jan-17 08:32 080 29 gusting 39 -7.0
2020-Jan-17 08:22 080 29 gusting 36 -7.0
2020-Jan-17 08:12 090 34 gusting 34
2020-Jan-17 08:02 090 33 gusting 38 -7.1
2020-Jan-17 07:52 090 34 gusting 36 -7.1
2020-Jan-17 07:42 090 33 gusting 34 -7.2
2020-Jan-17 07:32 080 33 gusting 33
2020-Jan-17 07:12 090 33 gusting 35 -7.0
2020-Jan-17 07:02 090 34 gusting 39 -7.0
2020-Jan-17 06:52 090 32 gusting 36 -7.0
2020-Jan-17 06:42 090 32 gusting 32
2020-Jan-17 06:32 090 32 gusting 36 -6.8
2020-Jan-17 06:22 090 33 gusting 41 -6.9
2020-Jan-17 06:12 080 27 gusting 33 -6.9
2020-Jan-17 06:02 080 25 gusting 35 -7.0
2020-Jan-17 05:52 070 24 gusting 40 -7.0
2020-Jan-17 05:42 060 14 gusting 22 -7.0
2020-Jan-17 05:32 070 15 gusting 27 -7.0
2020-Jan-17 05:12 080 20 gusting 39 -6.9
2020-Jan-17 05:02 080 22 gusting 34 -6.9
2020-Jan-17 04:52 080 21 gusting 34 -6.8
2020-Jan-17 04:42 070 18 gusting 27 -6.9
2020-Jan-17 04:32 070 18 gusting 28 -6.9
2020-Jan-17 04:22 070 17 gusting 28 -7.0
2020-Jan-17 04:12 070 18 gusting 29 -7.0
2020-Jan-17 04:02 070 20 gusting 22 -7.0
2020-Jan-17 03:52 090 28 gusting 38 -7.0
2020-Jan-17 03:42 080 26 gusting 35 -7.0
2020-Jan-17 03:32 080 27 gusting 39 -7.1
2020-Jan-17 03:22 070 27 gusting 31 -7.1
2020-Jan-17 03:12 080 27 gusting 38 -7.0
2020-Jan-17 03:02 070 26 gusting 33 -7.0
2020-Jan-17 02:52 080 27 gusting 39 -7.0
2020-Jan-17 02:42 080 20 gusting 34 -7.0
2020-Jan-17 02:32 080 25 gusting 35 -6.9
2020-Jan-17 02:22 080 31 gusting 40 -7.0
2020-Jan-17 02:12 080 27 gusting 41 -7.0
2020-Jan-17 02:02 080 26 gusting 36 -6.9
2020-Jan-17 01:52 080 21 gusting 34 -6.7
2020-Jan-17 01:42 080 24 gusting 34 -6.7
2020-Jan-17 01:32 080 22 gusting 35 -6.6
2020-Jan-17 01:22 060 19 gusting 32 -6.6
2020-Jan-17 01:12 080 21 gusting 32 -6.7
2020-Jan-17 01:02 080 26 gusting 33 -6.7
2020-Jan-17 00:52 080 24 gusting 29 -6.8
2020-Jan-17 00:42 080 20 gusting 29 -6.8
2020-Jan-17 00:32 060 13 gusting 15
2020-Jan-17 00:22 070 20 gusting 29 -6.9
2020-Jan-17 00:12 090 20 gusting 31 -6.8
2020-Jan-16 23:52 090 27 gusting 36 -6.8
2020-Jan-16 23:42 080 19 gusting 27 -6.8
2020-Jan-16 23:32 090 28 gusting 35 -6.9
2020-Jan-16 23:22 080 26 gusting 33 -6.8
2020-Jan-16 23:12 080 26 gusting 36 -6.7
2020-Jan-16 23:02 080 18 gusting 27 -6.6
2020-Jan-16 22:52 080 26 gusting 35 -6.7
2020-Jan-16 22:42 080 27 gusting 38 -6.9
2020-Jan-16 22:32 080 25 gusting 35 -6.8
2020-Jan-16 22:22 090 22 gusting 24
2020-Jan-16 22:12 080 20 gusting 31 -6.8
2020-Jan-16 22:02 080 27 gusting 36 -6.9
2020-Jan-16 21:52 090 31 gusting 38 -6.9
2020-Jan-16 21:42 090 29 gusting 34 -6.9
2020-Jan-16 21:32 090 27 gusting 29 -6.7
2020-Jan-16 21:22 090 28 gusting 36 -6.9
2020-Jan-16 21:12 080 28 gusting 36 -6.8
2020-Jan-16 21:02 080 26 gusting 36 -6.7
2020-Jan-16 20:52 080 27 gusting 34 -6.9
2020-Jan-16 20:42 080 27 gusting 35 -6.6
2020-Jan-16 20:32 080 27 gusting 38 -6.7
2020-Jan-16 20:22 060 15 gusting 25 -6.5
2020-Jan-16 20:12 060 15 gusting 25 -6.5
2020-Jan-16 20:02 070 15 gusting 22 -6.6
2020-Jan-16 19:52 070 15 gusting 20 -6.7
2020-Jan-16 19:42 060 12 gusting 26 -6.9
2020-Jan-16 19:32 080 9 gusting 13 -6.8
2020-Jan-16 19:22 040 17 gusting 25 -7.0
2020-Jan-16 19:12 050 13 gusting 18 -6.9
2020-Jan-16 19:02 030 13 gusting 20 -7.1
2020-Jan-16 18:42 360 9 gusting 20 -7.6
2020-Jan-16 18:32 060 11 gusting 21 -7.5
2020-Jan-16 18:22 040 9 gusting 22 -7.5
2020-Jan-16 18:12 030 7 gusting 12 -7.3
2020-Jan-16 18:02 010 11 gusting 20 -7.3
2020-Jan-16 17:52 030 11 gusting 19 -7.5
2020-Jan-16 17:42 050 6 gusting 12 -7.6
2020-Jan-16 17:32 030 11 gusting 18 -7.7
2020-Jan-16 17:22 040 7 gusting 11 -7.7
2020-Jan-16 17:12 040 8 gusting 13 -7.8
2020-Jan-16 17:02 020 12 gusting 24 -7.9
2020-Jan-16 16:52 050 11 gusting 15 -7.9
2020-Jan-16 16:42 020 9 gusting 27 -8.0
2020-Jan-16 16:32 030 11 gusting 22 -8.0
2020-Jan-16 16:22 050 8 gusting 18 -8.1
2020-Jan-16 16:12 040 12 gusting 32 -8.3
2020-Jan-16 16:02 040 13 gusting 26 -8.5
2020-Jan-16 15:52 020 8 gusting 18 -8.4
2020-Jan-16 15:42 040 6 gusting 13 -8.4
2020-Jan-16 15:32 030 8 gusting 14 -8.6
2020-Jan-16 15:22 030 8 gusting 15 -8.5
2020-Jan-16 15:12 040 7 gusting 13 -8.5
2020-Jan-16 15:02 010 11 gusting 19 -8.6